createdAt,value
2018-07-08T00:00:07.392Z,5.33
2018-07-08T00:00:40.507Z,4.83
2018-07-08T00:01:13.768Z,5.05
2018-07-08T00:01:46.867Z,6.87
2018-07-08T00:02:19.959Z,5.50
2018-07-08T00:02:53.527Z,7.67
2018-07-08T00:03:26.735Z,5.47
2018-07-08T00:03:59.904Z,5.83
2018-07-08T00:04:32.991Z,2.85
2018-07-08T00:05:06.165Z,7.42
2018-07-08T00:05:39.302Z,4.05
2018-07-08T00:06:12.411Z,4.40
2018-07-08T00:06:45.503Z,5.87
2018-07-08T00:07:18.791Z,4.25
2018-07-08T00:07:52.213Z,8.25
2018-07-08T00:08:25.286Z,7.75
2018-07-08T00:08:58.645Z,4.45
2018-07-08T00:09:31.750Z,6.12
2018-07-08T00:10:04.860Z,5.78
2018-07-08T00:10:38.683Z,6.30
2018-07-08T00:11:11.793Z,7.53
2018-07-08T00:11:45.480Z,5.22
2018-07-08T00:12:18.554Z,4.75
2018-07-08T00:12:52.118Z,9.80
2018-07-08T00:13:25.221Z,7.03
2018-07-08T00:13:58.803Z,4.30
2018-07-08T00:14:31.950Z,8.60
2018-07-08T00:15:05.044Z,7.92
2018-07-08T00:15:38.136Z,6.92
2018-07-08T00:16:11.491Z,7.62
2018-07-08T00:16:44.680Z,5.50
2018-07-08T00:17:17.797Z,3.65
2018-07-08T00:17:51.368Z,3.83
2018-07-08T00:18:25.393Z,7.20
2018-07-08T00:18:58.501Z,3.75
2018-07-08T00:19:31.708Z,5.65
2018-07-08T00:20:05.493Z,5.30
2018-07-08T00:20:38.624Z,5.97
2018-07-08T00:21:11.926Z,3.87
2018-07-08T00:21:45.000Z,7.15
2018-07-08T00:22:18.135Z,5.70
2018-07-08T00:22:51.231Z,6.10
2018-07-08T00:23:25.060Z,6.45
2018-07-08T00:23:58.163Z,10.23
2018-07-08T00:24:31.430Z,5.20
2018-07-08T00:25:04.516Z,4.40
2018-07-08T00:25:38.192Z,8.70
2018-07-08T00:26:11.759Z,6.83
2018-07-08T00:26:44.837Z,4.30
2018-07-08T00:27:17.942Z,5.53
2018-07-08T00:27:51.036Z,4.12
2018-07-08T00:28:24.134Z,9.80
2018-07-08T00:28:57.847Z,5.47
2018-07-08T00:29:30.968Z,5.90
2018-07-08T00:30:04.415Z,6.87
2018-07-08T00:30:37.524Z,5.25
2018-07-08T00:31:10.681Z,5.55
2018-07-08T00:31:44.068Z,6.87
2018-07-08T00:32:17.302Z,8.18
2018-07-08T00:32:50.645Z,6.33
2018-07-08T00:33:23.736Z,10.55
2018-07-08T00:33:56.857Z,3.33
2018-07-08T00:34:29.989Z,12.50
2018-07-08T00:35:03.254Z,8.15
2018-07-08T00:35:36.426Z,4.62
2018-07-08T00:36:09.584Z,6.08
2018-07-08T00:36:42.693Z,3.40
2018-07-08T00:37:15.948Z,7.20
2018-07-08T00:37:49.035Z,6.08
2018-07-08T00:38:22.093Z,7.15
2018-07-08T00:38:55.195Z,9.38
2018-07-08T00:39:28.242Z,5.30
2018-07-08T00:40:01.319Z,5.22
2018-07-08T00:40:34.839Z,4.67
2018-07-08T00:41:08.133Z,4.80
2018-07-08T00:41:41.206Z,7.08
2018-07-08T00:42:14.312Z,3.10
2018-07-08T00:42:47.403Z,4.17
2018-07-08T00:43:20.472Z,6.53
2018-07-08T00:43:53.772Z,5.50
2018-07-08T00:44:26.872Z,6.33
2018-07-08T00:44:59.982Z,4.15
2018-07-08T00:45:33.332Z,2.85
2018-07-08T00:46:06.631Z,4.58
2018-07-08T00:46:40.011Z,4.10
2018-07-08T00:47:13.092Z,6.87
2018-07-08T00:47:46.160Z,7.85
2018-07-08T00:48:19.257Z,4.67
2018-07-08T00:48:52.700Z,4.67
2018-07-08T00:49:25.780Z,6.65
2018-07-08T00:49:59.036Z,6.33
2018-07-08T00:50:32.150Z,4.20
2018-07-08T00:51:06.017Z,4.15
2018-07-08T00:51:39.240Z,4.17
2018-07-08T00:52:13.012Z,4.42
2018-07-08T00:52:46.494Z,7.83
2018-07-08T00:53:20.220Z,6.05
2018-07-08T00:53:53.608Z,5.42
2018-07-08T00:54:26.951Z,3.65
2018-07-08T00:55:00.055Z,6.83
2018-07-08T00:55:33.306Z,6.42
2018-07-08T00:56:06.678Z,5.53
2018-07-08T00:56:39.794Z,3.95
2018-07-08T00:57:12.884Z,3.85
2018-07-08T00:57:46.175Z,5.87
2018-07-08T00:58:19.309Z,5.97
2018-07-08T00:58:52.512Z,5.83
2018-07-08T00:59:25.657Z,6.30
2018-07-08T00:59:58.765Z,5.50
2018-07-08T01:00:38.035Z,6.60
2018-07-08T01:01:11.134Z,6.22
2018-07-08T01:01:44.766Z,5.70
2018-07-08T01:02:17.872Z,6.85
2018-07-08T01:02:51.017Z,5.75
2018-07-08T01:03:24.108Z,7.55
2018-07-08T01:03:57.202Z,7.33
2018-07-08T01:04:30.349Z,9.30
2018-07-08T01:05:03.474Z,5.80
2018-07-08T01:05:36.616Z,8.00
2018-07-08T01:06:09.830Z,5.97
2018-07-08T01:06:43.327Z,5.33
2018-07-08T01:07:16.508Z,5.62
2018-07-08T01:07:49.623Z,9.13
2018-07-08T01:08:22.723Z,9.60
2018-07-08T01:08:56.467Z,6.45
2018-07-08T01:09:29.832Z,3.95
2018-07-08T01:10:02.904Z,8.43
2018-07-08T01:10:35.987Z,5.50
2018-07-08T01:11:09.680Z,4.67
2018-07-08T01:11:43.056Z,6.30
2018-07-08T01:12:16.837Z,6.50
2018-07-08T01:12:50.444Z,4.33
2018-07-08T01:13:23.543Z,7.08
2018-07-08T01:13:56.654Z,7.28
2018-07-08T01:14:29.961Z,9.38
2018-07-08T01:15:03.274Z,7.58
2018-07-08T01:15:37.647Z,5.05
2018-07-08T01:16:12.108Z,6.92
2018-07-08T01:16:46.613Z,5.17
2018-07-08T01:17:20.676Z,11.22
2018-07-08T01:17:53.763Z,7.22
2018-07-08T01:18:27.896Z,3.47
2018-07-08T01:19:02.752Z,10.35
2018-07-08T01:19:35.847Z,8.05
2018-07-08T01:20:08.919Z,8.15
2018-07-08T01:20:41.974Z,6.80
2018-07-08T01:21:15.188Z,9.15
2018-07-08T01:21:48.365Z,5.10
2018-07-08T01:22:21.463Z,6.72
2018-07-08T01:22:55.008Z,5.33
2018-07-08T01:23:28.186Z,5.53
2018-07-08T01:24:01.249Z,6.45
2018-07-08T01:24:34.324Z,7.08
2018-07-08T01:25:09.883Z,5.05
2018-07-08T01:25:48.372Z,11.78
2018-07-08T01:26:21.452Z,6.53
2018-07-08T01:26:54.617Z,12.10
2018-07-08T01:27:27.727Z,5.80
2018-07-08T01:28:02.213Z,5.30
2018-07-08T01:28:35.297Z,5.80
2018-07-08T01:29:08.454Z,9.50
2018-07-08T01:29:42.126Z,4.37
2018-07-08T01:30:16.164Z,7.60
2018-07-08T01:30:49.247Z,9.33
2018-07-08T01:31:22.310Z,4.90
2018-07-08T01:31:57.677Z,9.75
2018-07-08T01:32:31.785Z,8.90
2018-07-08T01:33:06.027Z,13.18
2018-07-08T01:33:39.630Z,24.05
2018-07-08T01:34:12.840Z,32.28
2018-07-08T01:34:45.915Z,20.40
2018-07-08T01:35:19.194Z,17.00
2018-07-08T01:35:52.334Z,55.90
2018-07-08T01:36:26.169Z,46.75
2018-07-08T01:36:59.290Z,50.15
2018-07-08T01:37:32.864Z,68.95
2018-07-08T01:38:06.177Z,48.95
2018-07-08T01:38:39.239Z,96.95
2018-07-08T01:39:12.306Z,85.07
2018-07-08T01:39:46.607Z,45.25
2018-07-08T01:40:19.716Z,57.05
2018-07-08T01:40:52.808Z,28.98
2018-07-08T01:41:25.909Z,27.20
2018-07-08T01:41:59.028Z,25.02
2018-07-08T01:42:32.119Z,97.62
2018-07-08T01:43:05.271Z,111.65
2018-07-08T01:43:39.564Z,69.85
2018-07-08T01:44:12.651Z,39.53
2018-07-08T01:44:45.739Z,19.77
2018-07-08T01:45:18.806Z,27.50
2018-07-08T01:45:52.035Z,23.42
2018-07-08T01:46:25.126Z,32.55
2018-07-08T01:46:58.199Z,37.25
2018-07-08T01:47:31.311Z,52.15
2018-07-08T01:48:04.978Z,46.70
2018-07-08T01:48:38.836Z,15.13
2018-07-08T01:49:12.382Z,11.97
2018-07-08T01:49:45.507Z,23.67
2018-07-08T01:50:18.581Z,16.02
2018-07-08T01:50:52.211Z,17.48
2018-07-08T01:51:25.540Z,21.52
2018-07-08T01:51:58.643Z,23.32
2018-07-08T01:52:31.776Z,18.10
2018-07-08T01:53:05.041Z,20.45
2018-07-08T01:53:38.097Z,39.45
2018-07-08T01:54:11.390Z,26.65
2018-07-08T01:54:44.487Z,21.70
2018-07-08T01:55:18.006Z,9.68
2018-07-08T01:55:51.295Z,21.80
2018-07-08T01:56:25.139Z,20.52
2018-07-08T01:56:58.244Z,13.15
2018-07-08T01:57:32.048Z,21.57
2018-07-08T01:58:05.224Z,15.20
2018-07-08T01:58:38.699Z,15.70
2018-07-08T01:59:12.016Z,13.72
2018-07-08T01:59:45.535Z,15.10
2018-07-08T02:00:18.617Z,17.65
2018-07-08T02:00:51.714Z,8.23
2018-07-08T02:01:24.907Z,9.85
2018-07-08T02:01:58.289Z,15.72
2018-07-08T02:02:31.579Z,13.25
2018-07-08T02:03:04.672Z,12.25
2018-07-08T02:03:37.747Z,13.48
2018-07-08T02:04:10.810Z,14.13
2018-07-08T02:04:43.921Z,16.77
2018-07-08T02:05:16.999Z,11.90
2018-07-08T02:05:50.074Z,10.65
2018-07-08T02:06:23.735Z,8.25
2018-07-08T02:06:56.955Z,15.28
2018-07-08T02:07:30.080Z,12.82
2018-07-08T02:08:03.150Z,14.68
2018-07-08T02:08:36.382Z,13.10
2018-07-08T02:09:09.448Z,25.90
2018-07-08T02:09:43.065Z,39.70
2018-07-08T02:10:16.151Z,34.08
2018-07-08T02:10:49.392Z,39.25
2018-07-08T02:11:22.803Z,46.53
2018-07-08T02:11:56.198Z,38.58
2018-07-08T02:12:29.295Z,37.85
2018-07-08T02:13:02.449Z,62.00
2018-07-08T02:13:35.566Z,45.33
2018-07-08T02:14:08.673Z,61.20
2018-07-08T02:14:42.436Z,47.13
2018-07-08T02:15:15.507Z,28.17
2018-07-08T02:15:48.684Z,14.78
2018-07-08T02:16:22.634Z,20.43
2018-07-08T02:16:55.962Z,27.87
2018-07-08T02:17:29.265Z,20.02
2018-07-08T02:18:02.356Z,17.70
2018-07-08T02:18:35.489Z,15.58
2018-07-08T02:19:08.603Z,12.00
2018-07-08T02:19:41.677Z,14.03
2018-07-08T02:20:15.013Z,9.15
2018-07-08T02:20:48.089Z,11.95
2018-07-08T02:21:21.379Z,12.82
2018-07-08T02:21:54.795Z,14.90
2018-07-08T02:22:27.915Z,11.68
2018-07-08T02:23:01.460Z,10.63
2018-07-08T02:23:34.611Z,8.83
2018-07-08T02:24:07.665Z,13.98
2018-07-08T02:24:40.888Z,10.32
2018-07-08T02:25:13.987Z,9.70
2018-07-08T02:25:47.115Z,11.18
2018-07-08T02:26:20.187Z,12.13
2018-07-08T02:26:53.474Z,10.90
2018-07-08T02:27:26.892Z,8.83
2018-07-08T02:28:00.133Z,15.38
2018-07-08T02:28:33.290Z,13.22
2018-07-08T02:29:06.367Z,13.55
2018-07-08T02:29:39.507Z,16.45
2018-07-08T02:30:12.587Z,17.35
2018-07-08T02:30:45.744Z,14.35
2018-07-08T02:31:19.647Z,13.28
2018-07-08T02:31:53.013Z,10.03
2018-07-08T02:32:27.177Z,12.45
2018-07-08T02:33:00.851Z,10.53
2018-07-08T02:33:34.070Z,12.45
2018-07-08T02:34:07.243Z,13.13
2018-07-08T02:34:40.747Z,9.30
2018-07-08T02:35:14.711Z,12.25
2018-07-08T02:35:49.101Z,10.38
2018-07-08T02:36:23.044Z,5.83
2018-07-08T02:36:56.346Z,13.58
2018-07-08T02:37:29.440Z,8.65
2018-07-08T02:38:02.529Z,10.55
2018-07-08T02:38:35.743Z,6.40
2018-07-08T02:39:09.225Z,6.70
2018-07-08T02:39:42.691Z,9.55
2018-07-08T02:40:17.642Z,9.45
2018-07-08T02:40:50.745Z,8.40
2018-07-08T02:41:24.001Z,12.45
2018-07-08T02:41:57.283Z,9.08
2018-07-08T02:42:30.385Z,9.75
2018-07-08T02:43:03.622Z,7.62
2018-07-08T02:43:36.799Z,7.58
2018-07-08T02:44:09.894Z,8.68
2018-07-08T02:44:43.259Z,5.92
2018-07-08T02:45:16.466Z,10.93
2018-07-08T02:45:49.967Z,8.28
2018-07-08T02:46:23.068Z,7.55
2018-07-08T02:46:56.498Z,7.47
2018-07-08T02:47:29.811Z,8.15
2018-07-08T02:48:03.470Z,5.90
2018-07-08T02:48:36.780Z,11.48
2018-07-08T02:49:09.874Z,13.88
2018-07-08T02:49:42.934Z,10.20
2018-07-08T02:50:16.029Z,18.23
2018-07-08T02:50:49.100Z,10.08
2018-07-08T02:51:22.304Z,15.50
2018-07-08T02:51:55.394Z,9.35
2018-07-08T02:52:28.455Z,12.20
2018-07-08T02:53:01.582Z,20.43
2018-07-08T02:53:34.963Z,9.58
2018-07-08T02:54:08.119Z,10.28
2018-07-08T02:54:41.308Z,10.50
2018-07-08T02:55:14.403Z,8.10
2018-07-08T02:55:47.659Z,11.68
2018-07-08T02:56:20.973Z,12.35
2018-07-08T02:56:54.358Z,9.10
2018-07-08T02:57:27.563Z,13.85
2018-07-08T02:58:00.639Z,11.28
2018-07-08T02:58:33.859Z,11.25
2018-07-08T02:59:07.050Z,31.57
2018-07-08T02:59:40.144Z,34.63
2018-07-08T03:00:13.711Z,52.13
2018-07-08T03:00:46.886Z,22.87
2018-07-08T03:01:20.195Z,11.22
2018-07-08T03:01:53.255Z,7.85
2018-07-08T03:02:26.762Z,13.93
2018-07-08T03:03:00.036Z,28.62
2018-07-08T03:03:33.148Z,28.85
2018-07-08T03:04:06.275Z,24.95
2018-07-08T03:04:39.372Z,14.20
2018-07-08T03:05:13.249Z,12.28
2018-07-08T03:05:46.375Z,12.93
2018-07-08T03:06:19.751Z,7.87
2018-07-08T03:06:53.383Z,11.48
2018-07-08T03:07:26.570Z,9.10
2018-07-08T03:07:59.748Z,5.33
2018-07-08T03:08:32.946Z,7.03
2018-07-08T03:09:06.431Z,7.05
2018-07-08T03:09:39.510Z,6.78
2018-07-08T03:10:13.051Z,8.30
2018-07-08T03:10:46.158Z,8.80
2018-07-08T03:11:19.722Z,9.83
2018-07-08T03:11:52.829Z,5.45
2018-07-08T03:12:25.938Z,10.50
2018-07-08T03:12:59.294Z,7.47
2018-07-08T03:13:32.401Z,3.72
2018-07-08T03:14:05.740Z,5.37
2018-07-08T03:14:38.842Z,5.40
2018-07-08T03:15:12.166Z,9.58
2018-07-08T03:15:45.252Z,6.65
2018-07-08T03:16:18.346Z,7.85
2018-07-08T03:16:51.423Z,7.35
2018-07-08T03:17:24.716Z,8.30
2018-07-08T03:17:57.821Z,9.05
2018-07-08T03:18:30.891Z,6.15
2018-07-08T03:19:04.047Z,10.70
2018-07-08T03:19:37.237Z,9.25
2018-07-08T03:20:10.727Z,4.92
2018-07-08T03:20:43.816Z,8.85
2018-07-08T03:21:16.988Z,6.00
2018-07-08T03:21:50.944Z,6.05
2018-07-08T03:22:24.495Z,6.25
2018-07-08T03:22:57.736Z,6.12
2018-07-08T03:23:31.336Z,8.05
2018-07-08T03:24:04.476Z,5.28
2018-07-08T03:24:37.683Z,10.93
2018-07-08T03:25:10.772Z,9.23
2018-07-08T03:25:44.307Z,8.15
2018-07-08T03:26:18.034Z,10.78
2018-07-08T03:26:51.201Z,10.58
2018-07-08T03:27:24.351Z,7.08
2018-07-08T03:27:57.482Z,9.55
2018-07-08T03:28:31.043Z,8.30
2018-07-08T03:29:04.136Z,7.30
2018-07-08T03:29:38.015Z,5.60
2018-07-08T03:30:11.174Z,6.65
2018-07-08T03:30:44.269Z,8.35
2018-07-08T03:31:17.548Z,11.12
2018-07-08T03:31:50.725Z,9.73
2018-07-08T03:32:23.830Z,10.93
2018-07-08T03:32:57.080Z,7.28
2018-07-08T03:33:30.333Z,5.12
2018-07-08T03:34:03.480Z,6.47
2018-07-08T03:34:36.887Z,7.03
2018-07-08T03:35:09.970Z,5.12
2018-07-08T03:35:43.016Z,6.58
2018-07-08T03:36:16.297Z,7.00
2018-07-08T03:36:49.387Z,9.75
2018-07-08T03:37:22.500Z,4.25
2018-07-08T03:37:55.618Z,8.35
2018-07-08T03:38:28.714Z,10.58
2018-07-08T03:39:01.831Z,9.45
2018-07-08T03:39:34.919Z,4.65
2018-07-08T03:40:08.059Z,5.03
2018-07-08T03:40:41.574Z,8.63
2018-07-08T03:41:14.647Z,6.35
2018-07-08T03:41:48.064Z,5.35
2018-07-08T03:42:21.129Z,6.33
2018-07-08T03:42:54.813Z,6.45
2018-07-08T03:43:28.117Z,5.72
2018-07-08T03:44:01.253Z,7.72
2018-07-08T03:44:34.364Z,7.90
2018-07-08T03:45:07.629Z,6.70
2018-07-08T03:45:40.909Z,7.97
2018-07-08T03:46:14.275Z,5.25
2018-07-08T03:46:47.382Z,8.68
2018-07-08T03:47:20.483Z,8.38
2018-07-08T03:47:53.831Z,8.05
2018-07-08T03:48:26.996Z,7.45
2018-07-08T03:49:00.119Z,10.72
2018-07-08T03:49:33.357Z,6.15
2018-07-08T03:50:06.925Z,11.12
2018-07-08T03:50:40.030Z,5.35
2018-07-08T03:51:13.143Z,6.80
2018-07-08T03:51:46.237Z,6.62
2018-07-08T03:52:19.556Z,8.98
2018-07-08T03:52:52.728Z,8.43
2018-07-08T03:53:25.916Z,8.05
2018-07-08T03:53:59.399Z,3.60
2018-07-08T03:54:32.878Z,11.20
2018-07-08T03:55:05.999Z,9.35
2018-07-08T03:55:39.232Z,7.33
2018-07-08T03:56:12.416Z,10.85
2018-07-08T03:56:45.612Z,9.20
2018-07-08T03:57:18.712Z,7.62
2018-07-08T03:57:51.826Z,6.75
2018-07-08T03:58:25.054Z,6.60
2018-07-08T03:58:58.129Z,6.12
2018-07-08T03:59:31.219Z,6.87
2018-07-08T04:00:04.371Z,7.08
2018-07-08T04:00:37.533Z,7.50
2018-07-08T04:01:10.723Z,9.33
2018-07-08T04:01:43.871Z,9.30
2018-07-08T04:02:17.203Z,8.20
2018-07-08T04:02:50.274Z,3.83
2018-07-08T04:03:23.420Z,8.70
2018-07-08T04:03:56.517Z,9.53
2018-07-08T04:04:29.599Z,6.87
2018-07-08T04:05:02.672Z,6.70
2018-07-08T04:05:35.769Z,6.78
2018-07-08T04:06:09.008Z,7.83
2018-07-08T04:06:42.195Z,10.15
2018-07-08T04:07:15.408Z,6.80
2018-07-08T04:07:48.514Z,10.53
2018-07-08T04:08:21.715Z,4.67
2018-07-08T04:08:54.782Z,6.87
2018-07-08T04:09:27.881Z,6.17
2018-07-08T04:10:00.960Z,7.30
2018-07-08T04:10:34.139Z,5.80
2018-07-08T04:11:07.544Z,4.55
2018-07-08T04:11:40.711Z,5.70
2018-07-08T04:12:13.979Z,5.33
2018-07-08T04:12:47.156Z,8.63
2018-07-08T04:13:20.461Z,3.42
2018-07-08T04:13:53.577Z,5.50
2018-07-08T04:14:26.659Z,6.85
2018-07-08T04:14:59.762Z,10.28
2018-07-08T04:15:33.067Z,7.10
2018-07-08T04:16:06.791Z,10.58
2018-07-08T04:16:39.878Z,4.12
2018-07-08T04:17:13.203Z,8.28
2018-07-08T04:17:46.284Z,8.55
2018-07-08T04:18:19.568Z,9.83
2018-07-08T04:18:52.676Z,8.33
2018-07-08T04:19:25.766Z,5.12
2018-07-08T04:19:59.101Z,4.92
2018-07-08T04:20:32.396Z,8.20
2018-07-08T04:21:05.507Z,5.97
2018-07-08T04:21:39.233Z,9.63
2018-07-08T04:22:12.425Z,10.93
2018-07-08T04:22:45.532Z,5.60
2018-07-08T04:23:19.365Z,8.20
2018-07-08T04:23:52.605Z,5.28
2018-07-08T04:24:25.765Z,11.05
2018-07-08T04:24:59.343Z,5.78
2018-07-08T04:25:33.029Z,10.70
2018-07-08T04:26:06.208Z,10.45
2018-07-08T04:26:39.310Z,10.20
2018-07-08T04:27:12.415Z,6.92
2018-07-08T04:27:45.553Z,11.28
2018-07-08T04:28:18.663Z,7.33
2018-07-08T04:28:52.228Z,10.80
2018-07-08T04:29:25.326Z,7.37
2018-07-08T04:29:58.577Z,8.03
2018-07-08T04:30:32.243Z,7.33
2018-07-08T04:31:05.420Z,7.90
2018-07-08T04:31:38.506Z,7.47
2018-07-08T04:32:11.600Z,8.28
2018-07-08T04:32:44.704Z,7.65
2018-07-08T04:33:17.812Z,8.50
2018-07-08T04:33:51.137Z,8.78
2018-07-08T04:34:58.295Z,6.33
2018-07-08T04:35:31.406Z,12.03
2018-07-08T04:36:04.627Z,4.62
2018-07-08T04:36:37.761Z,10.98
2018-07-08T04:37:11.006Z,9.83
2018-07-08T04:37:44.102Z,7.83
2018-07-08T04:38:17.183Z,8.15
2018-07-08T04:38:50.287Z,11.90
2018-07-08T04:39:23.720Z,8.83
2018-07-08T04:39:56.906Z,12.70
2018-07-08T04:40:30.058Z,7.83
2018-07-08T04:41:03.266Z,7.45
2018-07-08T04:41:36.367Z,11.38
2018-07-08T04:42:09.608Z,10.68
2018-07-08T04:42:42.706Z,8.33
2018-07-08T04:43:15.956Z,7.53
2018-07-08T04:43:49.129Z,4.75
2018-07-08T04:44:22.260Z,9.73
2018-07-08T04:44:55.510Z,6.95
2018-07-08T04:45:28.697Z,5.92
2018-07-08T04:46:01.996Z,4.53
2018-07-08T04:46:35.101Z,8.18
2018-07-08T04:47:08.224Z,10.85
2018-07-08T04:47:41.307Z,7.78
2018-07-08T04:48:14.392Z,4.30
2018-07-08T04:48:47.751Z,7.33
2018-07-08T04:49:21.024Z,12.80
2018-07-08T04:49:54.107Z,4.80
2018-07-08T04:50:27.296Z,8.00
2018-07-08T04:51:00.376Z,7.22
2018-07-08T04:51:33.652Z,8.90
2018-07-08T04:52:07.072Z,6.83
2018-07-08T04:52:40.919Z,5.75
2018-07-08T04:53:14.051Z,9.35
2018-07-08T04:53:47.159Z,7.10
2018-07-08T04:54:20.226Z,11.22
2018-07-08T04:54:53.315Z,11.55
2018-07-08T04:55:26.457Z,9.43
2018-07-08T04:55:59.684Z,7.20
2018-07-08T04:56:33.116Z,8.58
2018-07-08T04:57:06.955Z,11.18
2018-07-08T04:57:40.031Z,7.10
2018-07-08T04:58:13.329Z,8.80
2018-07-08T04:58:46.432Z,9.50
2018-07-08T04:59:19.680Z,6.40
2018-07-08T04:59:52.822Z,9.48
2018-07-08T05:00:25.938Z,6.55
2018-07-08T05:00:59.053Z,6.60
2018-07-08T05:01:32.429Z,14.73
2018-07-08T05:02:05.560Z,5.37
2018-07-08T05:02:38.669Z,8.15
2018-07-08T05:03:12.360Z,6.35
2018-07-08T05:03:45.448Z,9.28
2018-07-08T05:04:18.815Z,7.45
2018-07-08T05:04:52.092Z,6.50
2018-07-08T05:05:25.175Z,5.97
2018-07-08T05:05:59.072Z,9.40
2018-07-08T05:06:32.250Z,8.10
2018-07-08T05:07:05.641Z,11.12
2018-07-08T05:07:38.910Z,9.30
2018-07-08T05:08:12.192Z,6.33
2018-07-08T05:08:45.302Z,9.93
2018-07-08T05:09:18.413Z,8.33
2018-07-08T05:09:51.629Z,7.20
2018-07-08T05:10:25.179Z,5.83
2018-07-08T05:10:58.409Z,8.03
2018-07-08T05:11:31.461Z,13.22
2018-07-08T05:12:04.620Z,7.75
2018-07-08T05:12:37.939Z,9.78
2018-07-08T05:13:11.027Z,5.10
2018-07-08T05:13:44.121Z,8.85
2018-07-08T05:14:17.279Z,6.78
2018-07-08T05:14:50.652Z,5.42
2018-07-08T05:15:24.033Z,13.43
2018-07-08T05:15:57.625Z,5.67
2018-07-08T05:16:31.191Z,7.45
2018-07-08T05:17:04.335Z,6.22
2018-07-08T05:17:37.646Z,11.20
2018-07-08T05:18:11.452Z,7.17
2018-07-08T05:18:44.551Z,9.50
2018-07-08T05:19:17.793Z,7.58
2018-07-08T05:19:50.992Z,11.22
2018-07-08T05:20:24.189Z,8.45
2018-07-08T05:20:57.250Z,9.83
2018-07-08T05:21:30.407Z,13.38
2018-07-08T05:22:03.523Z,3.45
2018-07-08T05:22:36.882Z,6.10
2018-07-08T05:23:09.967Z,9.15
2018-07-08T05:23:43.960Z,8.70
2018-07-08T05:24:17.015Z,9.20
2018-07-08T05:24:50.203Z,4.20
2018-07-08T05:25:23.760Z,6.72
2018-07-08T05:25:56.969Z,11.18
2018-07-08T05:26:30.099Z,7.12
2018-07-08T05:27:03.212Z,8.83
2018-07-08T05:27:36.312Z,5.90
2018-07-08T05:28:09.387Z,6.28
2018-07-08T05:28:42.458Z,10.15
2018-07-08T05:29:15.659Z,8.90
2018-07-08T05:29:49.139Z,7.90
2018-07-08T05:30:22.586Z,8.50
2018-07-08T05:30:55.777Z,11.25
2018-07-08T05:31:29.246Z,10.43
2018-07-08T05:32:02.480Z,5.58
2018-07-08T05:32:35.602Z,11.97
2018-07-08T05:33:09.103Z,7.87
2018-07-08T05:33:42.268Z,7.58
2018-07-08T05:34:15.414Z,8.45
2018-07-08T05:34:48.499Z,9.18
2018-07-08T05:35:21.834Z,11.70
2018-07-08T05:35:54.995Z,7.75
2018-07-08T05:36:28.052Z,9.48
2018-07-08T05:37:01.150Z,6.25
2018-07-08T05:37:34.550Z,12.35
2018-07-08T05:38:08.307Z,9.93
2018-07-08T05:38:41.469Z,10.18
2018-07-08T05:39:14.582Z,10.95
2018-07-08T05:39:48.183Z,12.80
2018-07-08T05:40:21.648Z,12.68
2018-07-08T05:40:54.773Z,9.93
2018-07-08T05:41:28.128Z,8.00
2018-07-08T05:42:01.493Z,7.28
2018-07-08T05:42:34.903Z,9.93
2018-07-08T05:43:08.072Z,7.00
2018-07-08T05:43:41.309Z,9.08
2018-07-08T05:44:14.510Z,9.63
2018-07-08T05:44:47.636Z,11.22
2018-07-08T05:45:21.797Z,6.12
2018-07-08T05:45:55.419Z,9.23
2018-07-08T05:46:28.583Z,9.55
2018-07-08T05:47:01.707Z,11.93
2018-07-08T05:47:35.112Z,7.72
2018-07-08T05:48:08.421Z,4.30
2018-07-08T05:48:41.535Z,6.83
2018-07-08T05:49:14.655Z,7.35
2018-07-08T05:49:47.813Z,10.55
2018-07-08T05:50:21.045Z,12.50
2018-07-08T05:50:54.111Z,8.83
2018-07-08T05:51:27.367Z,8.25
2018-07-08T05:52:00.552Z,8.00
2018-07-08T05:52:33.725Z,10.03
2018-07-08T05:53:07.117Z,10.72
2018-07-08T05:53:41.017Z,10.28
2018-07-08T05:54:14.498Z,9.93
2018-07-08T05:54:47.763Z,9.68
2018-07-08T05:55:21.328Z,10.20
2018-07-08T05:55:54.446Z,8.50
2018-07-08T05:56:27.822Z,8.90
2018-07-08T05:57:00.936Z,7.97
2018-07-08T05:57:34.121Z,12.20
2018-07-08T05:58:07.348Z,10.55
2018-07-08T05:58:40.435Z,9.05
2018-07-08T05:59:13.600Z,10.48
2018-07-08T05:59:46.888Z,11.43
2018-07-08T06:00:20.192Z,8.68
2018-07-08T06:00:53.332Z,10.08
2018-07-08T06:01:26.451Z,9.83
2018-07-08T06:01:59.584Z,8.05
2018-07-08T06:02:32.673Z,9.08
2018-07-08T06:03:06.176Z,6.58
2018-07-08T06:03:39.733Z,5.67
2018-07-08T06:04:12.822Z,8.45
2018-07-08T06:04:46.095Z,8.83
2018-07-08T06:05:19.273Z,5.75
2018-07-08T06:05:52.386Z,7.92
2018-07-08T06:06:25.527Z,16.00
2018-07-08T06:06:58.678Z,7.65
2018-07-08T06:07:31.999Z,8.85
2018-07-08T06:08:05.106Z,8.30
2018-07-08T06:08:38.255Z,9.48
2018-07-08T06:09:11.561Z,8.73
2018-07-08T06:09:44.664Z,7.90
2018-07-08T06:10:17.771Z,8.78
2018-07-08T06:10:51.066Z,13.30
2018-07-08T06:11:24.186Z,17.52
2018-07-08T06:11:57.552Z,12.80
2018-07-08T06:12:30.935Z,10.65
2018-07-08T06:13:04.371Z,10.45
2018-07-08T06:13:37.492Z,11.85
2018-07-08T06:14:10.760Z,5.47
2018-07-08T06:14:43.936Z,10.10
2018-07-08T06:15:17.263Z,9.28
2018-07-08T06:15:50.368Z,12.55
2018-07-08T06:16:23.452Z,12.10
2018-07-08T06:16:56.705Z,7.58
2018-07-08T06:17:29.763Z,11.20
2018-07-08T06:18:03.029Z,10.03
2018-07-08T06:18:36.722Z,10.65
2018-07-08T06:19:09.963Z,7.55
2018-07-08T06:19:43.068Z,8.70
2018-07-08T06:20:16.517Z,10.05
2018-07-08T06:20:49.682Z,9.30
2018-07-08T06:21:22.991Z,8.63
2018-07-08T06:21:56.082Z,8.80
2018-07-08T06:22:29.335Z,10.20
2018-07-08T06:23:02.658Z,7.67
2018-07-08T06:23:35.768Z,6.50
2018-07-08T06:24:09.445Z,13.08
2018-07-08T06:24:42.550Z,12.43
2018-07-08T06:25:15.849Z,11.00
2018-07-08T06:25:49.063Z,6.58
2018-07-08T06:26:22.191Z,12.20
2018-07-08T06:26:55.388Z,12.15
2018-07-08T06:27:28.478Z,8.60
2018-07-08T06:28:01.775Z,12.60
2018-07-08T06:28:34.900Z,10.85
2018-07-08T06:29:08.163Z,13.85
2018-07-08T06:29:41.415Z,7.30
2018-07-08T06:30:14.491Z,7.85
2018-07-08T06:30:47.755Z,12.60
2018-07-08T06:31:20.858Z,8.58
2018-07-08T06:31:54.030Z,18.23
2018-07-08T06:32:27.422Z,12.53
2018-07-08T06:33:01.591Z,13.10
2018-07-08T06:33:35.095Z,14.07
2018-07-08T06:34:08.235Z,9.10
2018-07-08T06:34:41.333Z,11.03
2018-07-08T06:35:14.865Z,13.80
2018-07-08T06:35:47.967Z,10.98
2018-07-08T06:36:21.122Z,10.40
2018-07-08T06:36:54.198Z,15.53
2018-07-08T06:37:27.449Z,8.08
2018-07-08T06:38:00.813Z,13.08
2018-07-08T06:38:33.984Z,7.28
2018-07-08T06:39:07.244Z,14.07
2018-07-08T06:39:40.608Z,9.75
2018-07-08T06:40:13.766Z,11.00
2018-07-08T06:40:47.002Z,11.90
2018-07-08T06:41:20.220Z,10.15
2018-07-08T06:41:53.402Z,8.00
2018-07-08T06:42:26.503Z,13.00
2018-07-08T06:42:59.718Z,8.98
2018-07-08T06:43:32.851Z,11.10
2018-07-08T06:44:06.115Z,9.33
2018-07-08T06:44:39.913Z,7.87
2018-07-08T06:45:13.488Z,10.40
2018-07-08T06:45:46.593Z,9.53
2018-07-08T06:46:19.742Z,19.35
2018-07-08T06:46:53.567Z,11.95
2018-07-08T06:47:26.824Z,15.85
2018-07-08T06:48:00.203Z,17.25
2018-07-08T06:48:33.651Z,12.58
2018-07-08T06:49:06.844Z,12.70
2018-07-08T06:49:40.066Z,13.10
2018-07-08T06:50:13.514Z,9.78
2018-07-08T06:50:46.705Z,12.33
2018-07-08T06:51:19.861Z,11.95
2018-07-08T06:51:53.186Z,10.28
2018-07-08T06:52:26.306Z,14.35
2018-07-08T06:52:59.734Z,16.25
2018-07-08T06:53:32.811Z,6.70
2018-07-08T06:54:05.998Z,12.00
2018-07-08T06:54:39.213Z,10.25
2018-07-08T06:55:12.411Z,11.83
2018-07-08T06:55:45.595Z,10.18
2018-07-08T06:56:18.793Z,13.18
2018-07-08T06:56:51.956Z,13.53
2018-07-08T06:57:25.127Z,13.62
2018-07-08T06:57:58.389Z,11.93
2018-07-08T06:58:31.421Z,13.60
2018-07-08T06:59:04.963Z,12.93
2018-07-08T06:59:38.143Z,18.48
2018-07-08T07:00:11.264Z,14.23
2018-07-08T07:00:44.431Z,15.55
2018-07-08T07:01:17.680Z,14.45
2018-07-08T07:01:50.758Z,12.70
2018-07-08T07:02:24.036Z,19.42
2018-07-08T07:02:57.212Z,14.85
2018-07-08T07:03:30.392Z,13.13
2018-07-08T07:04:03.572Z,10.48
2018-07-08T07:04:36.769Z,18.95
2018-07-08T07:05:10.251Z,12.05
2018-07-08T07:05:43.358Z,16.25
2018-07-08T07:06:16.622Z,16.57
2018-07-08T07:06:49.791Z,9.43
2018-07-08T07:07:22.945Z,12.13
2018-07-08T07:07:56.038Z,12.53
2018-07-08T07:08:29.353Z,16.23
2018-07-08T07:09:02.523Z,13.62
2018-07-08T07:09:35.678Z,20.10
2018-07-08T07:10:08.975Z,10.43
2018-07-08T07:10:42.044Z,12.50
2018-07-08T07:11:15.209Z,14.38
2018-07-08T07:11:48.702Z,19.70
2018-07-08T07:12:21.859Z,11.30
2018-07-08T07:12:54.976Z,20.60
2018-07-08T07:13:28.351Z,19.45
2018-07-08T07:14:01.440Z,18.87
2018-07-08T07:14:34.562Z,13.68
2018-07-08T07:15:07.759Z,21.02
2018-07-08T07:15:40.882Z,14.18
2018-07-08T07:16:14.107Z,11.00
2018-07-08T07:16:47.311Z,12.93
2018-07-08T07:17:20.799Z,13.95
2018-07-08T07:17:53.981Z,15.32